Time;durP1;ratioP1;P1;durP2;ratioP2;P2;SDS_P1;SDS_P2;PMS_P1;PMS_P2;Temp;Humidity;BMP_temperature;BMP_pressure;BME280_temperature;BME280_humidity;BME280_pressure;Samples;Min_cycle;Max_cycle;Signal;HPM_P1;HPM_P2
2021/11/28 00:01:23;;;;;;;15.63;6.83;;;2.50;1.00;;;;;;5057719;28;20497;-62
2021/11/28 00:03:54;;;;;;;11.53;7.20;;;2.50;1.00;;;;;;5057656;28;20496;-62
2021/11/28 00:06:23;;;;;;;10.50;6.10;;;2.50;99.90;;;;;;5056956;28;20466;-63
2021/11/28 00:11:44;;;;;;;7.23;6.63;;;2.50;99.90;;;;;;5057641;28;20504;-61
2021/11/28 00:14:15;;;;;;;7.80;6.37;;;2.50;99.90;;;;;;5057003;28;20551;-62
2021/11/28 00:16:43;;;;;;;8.43;6.50;;;2.40;1.00;;;;;;5058184;28;20508;-63
2021/11/28 00:19:10;;;;;;;9.70;6.60;;;2.40;1.00;;;;;;5058273;28;20454;-62
2021/11/28 00:21:38;;;;;;;8.37;6.53;;;2.40;1.00;;;;;;5057925;28;20589;-61
2021/11/28 00:24:07;;;;;;;11.30;7.20;;;2.40;1.00;;;;;;5057501;28;20913;-63
2021/11/28 00:26:35;;;;;;;9.97;7.40;;;2.40;1.00;;;;;;5057647;28;20462;-63
2021/11/28 00:29:04;;;;;;;10.67;6.47;;;2.40;1.00;;;;;;5057399;28;20483;-63
2021/11/28 00:31:32;;;;;;;7.90;6.53;;;2.40;1.00;;;;;;5057772;28;20908;-63
2021/11/28 00:34:04;;;;;;;9.10;6.57;;;2.40;26.90;;;;;;5056723;28;20541;-63
2021/11/28 00:36:32;;;;;;;11.20;8.43;;;2.30;10.30;;;;;;5057784;28;20466;-62
2021/11/28 00:38:59;;;;;;;16.47;8.37;;;2.20;89.80;;;;;;5058117;28;20501;-63
2021/11/28 00:41:28;;;;;;;17.10;8.63;;;2.20;99.90;;;;;;5057185;28;20559;-62
2021/11/28 00:43:55;;;;;;;23.93;13.83;;;2.10;1.00;;;;;;5056633;28;20525;-62
2021/11/28 00:46:23;;;;;;;19.20;13.70;;;2.00;1.00;;;;;;5057701;28;20528;-61
2021/11/28 00:48:54;;;;;;;14.03;8.43;;;2.00;99.90;;;;;;5057162;28;20939;-62
2021/11/28 00:51:36;;;;;;;11.77;9.07;;;1.90;99.90;;;;;;5057583;28;20531;-62
2021/11/28 00:54:04;;;;;;;8.43;7.10;;;1.80;99.90;;;;;;5057051;28;20466;-60
2021/11/28 00:56:33;;;;;;;11.20;6.90;;;1.80;99.90;;;;;;5057546;28;20466;-59
2021/11/28 00:59:03;;;;;;;23.57;9.50;;;1.80;93.10;;;;;;5057267;28;20468;-62
2021/11/28 01:01:31;;;;;;;10.73;7.53;;;1.80;1.00;;;;;;5057427;28;20917;-61
2021/11/28 01:04:04;;;;;;;13.77;6.77;;;1.90;99.90;;;;;;5056434;28;20548;-61
2021/11/28 01:06:31;;;;;;;11.37;6.87;;;1.90;99.90;;;;;;5057489;28;20458;-61
2021/11/28 01:08:58;;;;;;;14.57;6.83;;;1.90;1.00;;;;;;5057560;28;20458;-61
2021/11/28 01:11:26;;;;;;;10.33;7.40;;;1.90;99.90;;;;;;5057597;28;20470;-62
2021/11/28 01:13:57;;;;;;;8.83;6.43;;;1.90;99.90;;;;;;5056472;28;20500;-62
2021/11/28 01:16:25;;;;;;;10.93;6.23;;;1.90;99.90;;;;;;5057349;28;20496;-61
2021/11/28 01:18:53;;;;;;;10.80;6.40;;;1.90;91.80;;;;;;5056855;28;20512;-62
2021/11/28 01:21:24;;;;;;;14.90;7.30;;;1.80;1.00;;;;;;5057040;28;20529;-62
2021/11/28 01:23:53;;;;;;;12.93;8.13;;;1.80;1.00;;;;;;5057116;28;20473;-62
2021/11/28 01:26:20;;;;;;;9.50;7.30;;;1.80;1.00;;;;;;5056474;28;20462;-62
2021/11/28 01:28:48;;;;;;;14.87;7.40;;;1.80;1.00;;;;;;5056735;28;20565;-60
2021/11/28 01:31:17;;;;;;;12.60;7.90;;;1.80;1.00;;;;;;5057002;28;20505;-62
2021/11/28 01:33:48;;;;;;;8.83;7.57;;;1.80;99.90;;;;;;5057114;28;20466;-62
2021/11/28 01:36:17;;;;;;;13.13;8.20;;;1.80;99.90;;;;;;5056127;28;20600;-62
2021/11/28 01:38:44;;;;;;;9.80;7.07;;;1.80;99.90;;;;;;5056846;28;20468;-62
2021/11/28 01:41:11;;;;;;;20.27;8.83;;;1.70;1.00;;;;;;5057045;28;20810;-62
2021/11/28 01:43:40;;;;;;;10.90;7.30;;;1.70;99.90;;;;;;5056665;28;20565;-62
2021/11/28 01:46:08;;;;;;;12.37;8.07;;;1.70;1.00;;;;;;5056253;28;20497;-62
2021/11/28 01:48:37;;;;;;;11.60;7.13;;;1.70;1.00;;;;;;5056611;28;20490;-62
2021/11/28 01:51:05;;;;;;;14.43;8.30;;;1.70;99.90;;;;;;5057399;28;20474;-62
2021/11/28 01:53:32;;;;;;;9.57;6.67;;;1.70;1.00;;;;;;5057623;28;20556;-62
2021/11/28 01:56:00;;;;;;;8.47;7.10;;;1.70;21.30;;;;;;5060464;28;20833;-62
2021/11/28 01:58:27;;;;;;;9.87;7.50;;;1.60;99.90;;;;;;5060888;28;20588;-60
2021/11/28 02:00:57;;;;;;;9.23;7.63;;;1.60;99.90;;;;;;5060545;28;20896;-59
2021/11/28 02:03:24;;;;;;;13.27;7.97;;;1.60;1.00;;;;;;5060192;28;20563;-59
2021/11/28 02:05:56;;;;;;;13.57;8.63;;;1.50;1.00;;;;;;5060658;28;20515;-60
2021/11/28 02:08:27;;;;;;;9.77;8.30;;;1.40;99.90;;;;;;5060129;28;20537;-60
2021/11/28 02:10:54;;;;;;;34.93;18.87;;;1.40;99.90;;;;;;5060635;28;20497;-59
2021/11/28 02:13:23;;;;;;;10.73;7.13;;;1.30;99.90;;;;;;5060204;28;20804;-61
2021/11/28 02:15:54;;;;;;;9.20;7.10;;;1.20;97.30;;;;;;5060826;28;20766;-62
2021/11/28 02:18:25;;;;;;;10.30;6.70;;;1.10;99.90;;;;;;5060207;28;20552;-62
2021/11/28 02:20:56;;;;;;;13.53;7.47;;;1.00;99.90;;;;;;5059553;28;20552;-62
2021/11/28 02:23:28;;;;;;;13.37;7.10;;;1.00;99.90;;;;;;5060258;28;20592;-58
2021/11/28 02:25:58;;;;;;;9.20;7.47;;;0.90;99.90;;;;;;5060257;28;20462;-61
2021/11/28 02:28:25;;;;;;;16.40;10.70;;;0.80;99.90;;;;;;5060030;28;20466;-60
2021/11/28 02:30:53;;;;;;;13.50;9.87;;;0.70;99.90;;;;;;5060045;28;20490;-60
2021/11/28 02:33:20;;;;;;;10.77;7.50;;;0.60;99.90;;;;;;5059634;28;20553;-61
2021/11/28 02:35:49;;;;;;;7.00;6.23;;;0.60;1.00;;;;;;5059742;28;20476;-59
2021/11/28 02:38:20;;;;;;;10.03;6.83;;;0.60;1.00;;;;;;5059524;28;20522;-58
2021/11/28 02:40:52;;;;;;;8.00;6.57;;;0.50;1.00;;;;;;5060236;28;20556;-60
2021/11/28 02:43:19;;;;;;;7.47;6.60;;;0.50;1.00;;;;;;5059582;28;20503;-59
2021/11/28 02:45:47;;;;;;;12.13;8.47;;;0.50;1.00;;;;;;5059192;28;20533;-61
2021/11/28 02:48:16;;;;;;;10.60;7.33;;;0.40;29.50;;;;;;5059527;28;20819;-61
2021/11/28 02:50:48;;;;;;;11.17;7.53;;;0.40;66.60;;;;;;5059991;28;20787;-61
2021/11/28 02:53:17;;;;;;;10.30;6.40;;;0.40;99.90;;;;;;5059636;28;20469;-61
2021/11/28 02:55:48;;;;;;;8.03;6.93;;;0.40;99.90;;;;;;5059080;28;20552;-61
2021/11/28 02:58:19;;;;;;;9.60;7.70;;;0.50;99.90;;;;;;5059452;28;20469;-61
2021/11/28 03:00:50;;;;;;;10.67;7.13;;;0.40;99.90;;;;;;5059114;28;20813;-61
2021/11/28 03:03:17;;;;;;;10.10;7.93;;;0.30;99.90;;;;;;5059012;28;21020;-61
2021/11/28 03:05:45;;;;;;;11.00;7.60;;;0.40;99.90;;;;;;5058354;28;20970;-61
2021/11/28 03:08:15;;;;;;;10.03;7.40;;;0.30;99.90;;;;;;5059269;28;20932;-61
2021/11/28 03:10:46;;;;;;;12.40;7.60;;;0.30;99.90;;;;;;5059394;28;20484;-60
2021/11/28 03:13:18;;;;;;;10.60;7.97;;;0.40;99.90;;;;;;5059278;28;20952;-60
2021/11/28 03:15:46;;;;;;;7.50;6.70;;;0.40;99.90;;;;;;5059639;28;20496;-59
2021/11/28 03:18:14;;;;;;;11.33;7.67;;;0.30;99.90;;;;;;5059141;28;20918;-61
2021/11/28 03:20:44;;;;;;;11.00;7.60;;;0.50;99.90;;;;;;5057380;28;20551;-59
2021/11/28 03:23:15;;;;;;;8.43;7.53;;;0.40;99.90;;;;;;5058425;28;20489;-60
2021/11/28 03:25:44;;;;;;;8.83;7.93;;;0.50;99.90;;;;;;5059174;28;20462;-59
2021/11/28 03:28:15;;;;;;;8.80;6.80;;;0.40;99.90;;;;;;5059269;28;20465;-59
2021/11/28 03:30:43;;;;;;;14.50;6.83;;;0.40;99.90;;;;;;5058585;28;20511;-61
2021/11/28 03:33:11;;;;;;;10.77;7.27;;;0.40;99.90;;;;;;5059035;28;20553;-60
2021/11/28 03:35:39;;;;;;;11.30;8.70;;;0.40;99.90;;;;;;5058130;28;20547;-61
2021/11/28 03:38:07;;;;;;;9.87;7.00;;;0.40;99.90;;;;;;5058410;28;20919;-60
2021/11/28 03:40:37;;;;;;;9.27;7.20;;;0.50;99.90;;;;;;5057735;28;20539;-60
2021/11/28 03:43:06;;;;;;;8.83;7.10;;;0.50;99.90;;;;;;5057799;28;20492;-61
2021/11/28 03:45:37;;;;;;;9.67;7.53;;;0.50;99.90;;;;;;5057756;28;20901;-61
2021/11/28 03:48:11;;;;;;;11.17;8.23;;;0.60;99.90;;;;;;5057470;28;20487;-61
2021/11/28 03:50:39;;;;;;;9.77;7.63;;;0.60;99.90;;;;;;5059089;28;20493;-61
2021/11/28 03:53:06;;;;;;;9.23;7.67;;;0.70;99.90;;;;;;5058452;28;20897;-61
2021/11/28 03:55:33;;;;;;;10.47;7.40;;;0.80;99.90;;;;;;5058413;28;20505;-61
2021/11/28 03:58:04;;;;;;;10.87;7.03;;;0.70;99.90;;;;;;5058540;28;20496;-61
2021/11/28 04:00:36;;;;;;;9.00;7.57;;;0.70;99.90;;;;;;5057941;28;20466;-61
2021/11/28 04:03:04;;;;;;;8.83;7.43;;;0.70;99.90;;;;;;5058796;28;20490;-61
2021/11/28 04:05:32;;;;;;;9.30;7.40;;;0.70;99.90;;;;;;5057625;28;20556;-61
2021/11/28 04:07:59;;;;;;;8.23;6.70;;;0.80;99.90;;;;;;5058439;28;20552;-61
2021/11/28 04:10:27;;;;;;;9.37;6.40;;;0.90;99.90;;;;;;5058448;28;20556;-59
2021/11/28 04:12:55;;;;;;;9.00;6.70;;;0.90;99.90;;;;;;5058122;28;20484;-60
2021/11/28 04:15:22;;;;;;;9.87;7.63;;;1.00;99.90;;;;;;5057860;28;20481;-61
2021/11/28 04:17:51;;;;;;;10.87;7.40;;;1.00;99.90;;;;;;5057816;28;20543;-61
2021/11/28 04:20:18;;;;;;;10.50;7.10;;;1.00;99.90;;;;;;5057905;28;20513;-61
2021/11/28 04:22:45;;;;;;;12.03;7.50;;;1.10;99.90;;;;;;5057631;28;20767;-59
2021/11/28 04:25:14;;;;;;;10.43;6.80;;;1.10;99.90;;;;;;5057496;28;20501;-61
2021/11/28 04:27:42;;;;;;;8.37;7.10;;;1.10;99.90;;;;;;5057769;28;20466;-60
2021/11/28 04:30:11;;;;;;;12.23;7.20;;;1.10;99.90;;;;;;5057393;28;20552;-61
2021/11/28 04:32:38;;;;;;;13.63;7.70;;;1.10;99.90;;;;;;5057178;28;20464;-59
2021/11/28 04:35:08;;;;;;;7.90;7.03;;;1.10;99.90;;;;;;5057717;28;20839;-61
2021/11/28 04:37:36;;;;;;;7.50;6.70;;;1.20;99.90;;;;;;5057928;28;20549;-61
2021/11/28 04:40:07;;;;;;;11.50;7.37;;;1.20;99.90;;;;;;5058153;28;20541;-61
2021/11/28 04:42:37;;;;;;;8.17;7.40;;;1.20;99.90;;;;;;5057466;28;20758;-61
2021/11/28 04:45:09;;;;;;;11.47;7.30;;;1.20;99.90;;;;;;5057428;28;20909;-61
2021/11/28 04:47:37;;;;;;;12.53;8.13;;;1.20;99.90;;;;;;5057074;28;20498;-61
2021/11/28 04:50:07;;;;;;;9.40;7.20;;;1.20;99.90;;;;;;5057850;28;20505;-61
2021/11/28 04:52:35;;;;;;;12.90;7.50;;;1.20;99.90;;;;;;5057326;28;20490;-61
2021/11/28 04:55:04;;;;;;;13.53;7.07;;;1.20;99.90;;;;;;5057107;28;20476;-61
2021/11/28 04:57:31;;;;;;;9.33;7.83;;;1.20;99.90;;;;;;5057683;28;20466;-61
2021/11/28 04:59:59;;;;;;;7.90;6.17;;;1.20;99.90;;;;;;5057202;28;20477;-61
2021/11/28 05:02:29;;;;;;;7.30;6.60;;;1.20;99.90;;;;;;5056854;28;20874;-61
2021/11/28 05:04:56;;;;;;;11.83;6.83;;;1.30;99.90;;;;;;5056909;28;20616;-61
2021/11/28 05:07:25;;;;;;;8.50;7.23;;;1.30;99.90;;;;;;5056580;28;20470;-61
2021/11/28 05:09:52;;;;;;;9.57;7.20;;;1.30;99.90;;;;;;5057205;28;20950;-61
2021/11/28 05:12:19;;;;;;;10.60;7.50;;;1.30;99.90;;;;;;5057251;28;20835;-61
2021/11/28 05:14:47;;;;;;;10.17;6.50;;;1.30;99.90;;;;;;5056248;28;20486;-61
2021/11/28 05:17:14;;;;;;;8.60;7.23;;;1.20;99.90;;;;;;5056841;28;20549;-60
2021/11/28 05:19:45;;;;;;;12.57;7.50;;;1.30;99.90;;;;;;5057171;28;20557;-61
2021/11/28 05:22:12;;;;;;;8.87;7.20;;;1.30;99.90;;;;;;5057459;28;20463;-61
2021/11/28 05:24:41;;;;;;;8.00;6.90;;;1.20;99.90;;;;;;5056983;28;20462;-60
2021/11/28 05:27:08;;;;;;;13.03;7.90;;;1.20;99.90;;;;;;5056678;28;20478;-60
2021/11/28 05:29:38;;;;;;;10.80;7.10;;;1.20;99.90;;;;;;5056240;28;20569;-61
2021/11/28 05:32:06;;;;;;;13.60;8.07;;;1.20;99.90;;;;;;5056810;28;20462;-61
2021/11/28 05:34:33;;;;;;;8.57;7.00;;;1.20;99.90;;;;;;5056765;28;20545;-61
2021/11/28 05:37:01;;;;;;;14.37;8.60;;;1.20;99.90;;;;;;5056629;28;20496;-60
2021/11/28 05:39:28;;;;;;;9.20;7.20;;;1.20;99.90;;;;;;5057044;28;20463;-61
2021/11/28 05:41:57;;;;;;;10.77;8.57;;;1.20;99.90;;;;;;5056719;28;20492;-61
2021/11/28 05:44:25;;;;;;;11.20;7.47;;;1.20;99.90;;;;;;5056656;28;20500;-61
2021/11/28 05:46:52;;;;;;;13.20;7.53;;;1.20;99.90;;;;;;5056911;28;20516;-61
2021/11/28 05:49:20;;;;;;;8.60;7.73;;;1.20;99.90;;;;;;5056309;28;20577;-61
2021/11/28 05:51:47;;;;;;;11.23;8.30;;;1.20;99.90;;;;;;5056553;28;20552;-61
2021/11/28 05:54:14;;;;;;;12.43;7.73;;;1.20;99.90;;;;;;5057097;28;20501;-61
2021/11/28 05:56:41;;;;;;;8.07;6.80;;;1.30;99.90;;;;;;5056138;28;20557;-61
2021/11/28 05:59:10;;;;;;;9.93;7.30;;;1.30;99.90;;;;;;5057065;28;20508;-61
2021/11/28 06:01:37;;;;;;;11.70;7.30;;;1.20;99.90;;;;;;5036953;28;20917;-61
2021/11/28 06:04:05;;;;;;;9.13;7.03;;;1.30;99.90;;;;;;5036530;28;20538;-61
2021/11/28 06:06:33;;;;;;;11.23;8.07;;;1.30;99.90;;;;;;5046102;28;20909;-61
2021/11/28 06:09:00;;;;;;;9.77;6.87;;;1.30;99.90;;;;;;5056656;28;20506;-61
2021/11/28 06:11:27;;;;;;;10.33;7.63;;;1.20;99.90;;;;;;5056461;28;20548;-61
2021/11/28 06:13:55;;;;;;;10.10;8.83;;;1.30;99.90;;;;;;5056874;28;20507;-61
2021/11/28 06:16:24;;;;;;;10.33;8.90;;;1.30;99.90;;;;;;5055854;28;20505;-61
2021/11/28 06:18:52;;;;;;;14.60;9.60;;;1.30;99.90;;;;;;5056425;28;20565;-61
2021/11/28 06:21:19;;;;;;;12.40;9.50;;;1.40;99.90;;;;;;5055966;28;20478;-61
2021/11/28 06:23:46;;;;;;;10.67;8.57;;;1.30;99.90;;;;;;5056329;28;20493;-59
2021/11/28 06:26:14;;;;;;;12.80;8.93;;;1.30;99.90;;;;;;5056045;28;20469;-61
2021/11/28 06:28:42;;;;;;;14.13;10.87;;;1.40;99.90;;;;;;5055832;28;20517;-61
2021/11/28 06:31:09;;;;;;;11.17;8.43;;;1.40;99.90;;;;;;5056543;28;20523;-61
2021/11/28 06:33:38;;;;;;;10.43;8.47;;;1.30;99.90;;;;;;5056145;28;20556;-61
2021/11/28 06:36:07;;;;;;;10.10;7.97;;;1.30;99.90;;;;;;5056609;28;20552;-61
2021/11/28 06:38:35;;;;;;;7.97;7.17;;;1.20;99.90;;;;;;5055700;28;20465;-61
2021/11/28 06:41:03;;;;;;;10.20;7.30;;;1.20;99.90;;;;;;5058712;28;20509;-61
2021/11/28 06:43:33;;;;;;;9.40;7.03;;;1.20;99.90;;;;;;5059820;28;20497;-61
2021/11/28 06:46:01;;;;;;;9.23;7.53;;;1.30;99.90;;;;;;5059509;28;20456;-61
2021/11/28 06:48:29;;;;;;;10.70;6.47;;;1.30;99.90;;;;;;5058922;28;20462;-61
2021/11/28 06:50:57;;;;;;;8.63;7.00;;;1.30;99.90;;;;;;5060000;28;20921;-61
2021/11/28 06:53:25;;;;;;;8.80;7.03;;;1.30;99.90;;;;;;5059536;28;20498;-61
2021/11/28 06:55:53;;;;;;;8.23;7.03;;;1.30;99.90;;;;;;5050519;28;20545;-61
2021/11/28 06:58:23;;;;;;;12.00;7.93;;;1.40;99.90;;;;;;5056816;28;20475;-61
2021/11/28 07:00:50;;;;;;;13.00;7.80;;;1.40;99.90;;;;;;5059369;28;20911;-61
2021/11/28 07:03:19;;;;;;;11.37;7.73;;;1.40;99.90;;;;;;5058438;28;20997;-61
2021/11/28 07:05:46;;;;;;;10.23;7.80;;;1.40;99.90;;;;;;5058942;28;20468;-61
2021/11/28 07:08:15;;;;;;;8.70;7.77;;;1.40;99.90;;;;;;5058945;28;20506;-61
2021/11/28 07:10:43;;;;;;;10.50;8.10;;;1.50;99.90;;;;;;5057864;28;20506;-59
2021/11/28 07:13:15;;;;;;;12.03;7.90;;;1.40;99.90;;;;;;5057868;28;20485;-60
2021/11/28 07:15:43;;;;;;;9.00;7.50;;;1.40;99.90;;;;;;5056235;28;20544;-61
2021/11/28 07:18:10;;;;;;;10.40;7.53;;;1.50;99.90;;;;;;5056531;28;20850;-60
2021/11/28 07:20:42;;;;;;;12.13;9.20;;;1.50;99.90;;;;;;5058674;28;20472;-61
2021/11/28 07:23:10;;;;;;;9.03;7.70;;;1.50;99.90;;;;;;5051885;28;20494;-61
2021/11/28 07:25:38;;;;;;;11.07;8.60;;;1.50;99.90;;;;;;5057710;28;20552;-61
2021/11/28 07:28:06;;;;;;;12.80;7.60;;;1.60;99.90;;;;;;5055554;28;20513;-61
2021/11/28 07:30:33;;;;;;;11.40;7.43;;;1.50;99.90;;;;;;5057098;28;20569;-61
2021/11/28 07:33:02;;;;;;;12.57;7.77;;;1.50;99.90;;;;;;5057903;28;20907;-61
2021/11/28 07:35:35;;;;;;;12.43;8.13;;;1.50;99.90;;;;;;5058677;28;20510;-61
2021/11/28 07:38:02;;;;;;;9.60;7.30;;;1.60;99.90;;;;;;5058125;28;20472;-61
2021/11/28 07:40:31;;;;;;;12.90;9.23;;;1.60;99.90;;;;;;5057501;28;20466;-61
2021/11/28 07:43:02;;;;;;;10.40;8.23;;;1.60;99.90;;;;;;5058239;28;20557;-59
2021/11/28 07:45:32;;;;;;;11.00;8.30;;;1.60;99.90;;;;;;5057878;28;20497;-61
2021/11/28 07:48:00;;;;;;;9.80;8.80;;;1.60;99.90;;;;;;5057653;28;20548;-61
2021/11/28 07:50:28;;;;;;;15.10;9.17;;;1.70;99.90;;;;;;5057763;28;20555;-62
2021/11/28 07:52:58;;;;;;;9.97;8.27;;;1.70;99.90;;;;;;5058036;28;20462;-62
2021/11/28 07:55:26;;;;;;;8.80;7.50;;;1.80;99.90;;;;;;5058309;28;20561;-62
2021/11/28 07:57:53;;;;;;;12.07;7.43;;;1.80;99.90;;;;;;5038388;28;20467;-62
2021/11/28 08:00:22;;;;;;;9.30;7.70;;;1.80;99.90;;;;;;5038293;28;20509;-62
2021/11/28 08:02:50;;;;;;;10.20;8.37;;;1.70;99.90;;;;;;5056725;28;20461;-62
2021/11/28 08:05:17;;;;;;;11.40;8.33;;;1.70;99.90;;;;;;5062052;28;20492;-62
2021/11/28 08:07:45;;;;;;;11.63;8.30;;;1.80;99.90;;;;;;5066446;28;20462;-62
2021/11/28 08:10:13;;;;;;;9.47;8.50;;;1.70;99.90;;;;;;5065531;28;20552;-60
2021/11/28 08:12:40;;;;;;;15.13;9.10;;;1.80;99.90;;;;;;5064079;28;21006;-61
2021/11/28 08:15:15;;;;;;;13.10;9.60;;;1.80;99.90;;;;;;5068044;28;20546;-62
2021/11/28 08:17:45;;;;;;;20.20;12.20;;;1.90;99.90;;;;;;5056079;28;20472;-61
2021/11/28 08:20:19;;;;;;;30.57;17.97;;;1.90;99.90;;;;;;5056332;28;20553;-62
2021/11/28 08:22:50;;;;;;;25.97;16.20;;;2.00;99.90;;;;;;5056447;28;20470;-62
2021/11/28 08:25:21;;;;;;;21.93;13.67;;;2.00;99.90;;;;;;5055832;28;20490;-60
2021/11/28 08:27:49;;;;;;;15.57;11.17;;;2.00;99.90;;;;;;5056471;28;20466;-62
2021/11/28 08:30:19;;;;;;;12.67;10.40;;;2.10;99.90;;;;;;5056547;28;20565;-61
2021/11/28 08:32:49;;;;;;;17.73;12.10;;;2.10;99.90;;;;;;5056601;28;20466;-63
2021/11/28 08:35:19;;;;;;;23.23;16.47;;;2.20;99.90;;;;;;5055515;28;20472;-63
2021/11/28 08:37:47;;;;;;;32.30;18.10;;;2.20;99.90;;;;;;5047248;28;20581;-63
2021/11/28 08:40:19;;;;;;;19.60;12.77;;;2.20;99.90;;;;;;5059133;28;20557;-63
2021/11/28 08:42:49;;;;;;;17.07;13.00;;;2.20;99.90;;;;;;5055176;28;20508;-63
2021/11/28 08:45:19;;;;;;;14.50;11.10;;;2.20;99.90;;;;;;5051949;28;20584;-63
2021/11/28 08:47:52;;;;;;;13.83;11.47;;;2.40;99.90;;;;;;5056646;28;20497;-63
2021/11/28 08:50:20;;;;;;;12.30;9.90;;;2.40;99.90;;;;;;5056915;28;20914;-63
2021/11/28 08:52:48;;;;;;;15.60;12.50;;;2.50;99.90;;;;;;5057459;28;20429;-63
2021/11/28 08:55:17;;;;;;;20.07;13.60;;;2.60;99.90;;;;;;5056026;28;20988;-63
2021/11/28 08:57:44;;;;;;;26.53;18.50;;;2.60;99.90;;;;;;5056642;28;20556;-64
2021/11/28 09:00:16;;;;;;;19.80;14.30;;;2.60;99.90;;;;;;5056824;28;20565;-64
2021/11/28 09:02:49;;;;;;;13.37;11.70;;;2.60;99.90;;;;;;5056369;28;20520;-63
2021/11/28 09:05:20;;;;;;;20.17;13.20;;;2.60;99.90;;;;;;5055870;28;20846;-63
2021/11/28 09:07:50;;;;;;;12.07;10.83;;;2.70;99.90;;;;;;5054307;28;20477;-64
2021/11/28 09:10:18;;;;;;;11.90;9.13;;;2.70;99.90;;;;;;5055792;28;20490;-63
2021/11/28 09:12:52;;;;;;;10.90;9.33;;;2.80;99.90;;;;;;5057551;28;20756;-63
2021/11/28 09:15:25;;;;;;;10.87;8.93;;;2.90;99.90;;;;;;5055619;28;20458;-63
2021/11/28 09:17:57;;;;;;;10.00;8.40;;;2.80;99.90;;;;;;5057383;28;20466;-63
2021/11/28 09:20:28;;;;;;;9.50;8.50;;;2.80;99.90;;;;;;5057472;28;20501;-63
2021/11/28 09:25:45;;;;;;;9.20;7.70;;;2.90;99.90;;;;;;5055987;28;20478;-63
2021/11/28 09:28:18;;;;;;;10.23;8.53;;;3.00;95.30;;;;;;5057101;28;20798;-63
2021/11/28 09:30:45;;;;;;;9.97;7.40;;;3.00;58.60;;;;;;5057429;28;20504;-63
2021/11/28 09:33:13;;;;;;;12.73;8.60;;;2.80;1.00;;;;;;5057026;28;20561;-63
2021/11/28 09:35:45;;;;;;;13.37;9.40;;;2.80;1.00;;;;;;5056320;28;20923;-63
2021/11/28 09:38:18;;;;;;;13.00;9.20;;;2.90;1.00;;;;;;5056946;28;20557;-64
2021/11/28 09:40:50;;;;;;;15.47;9.30;;;3.00;1.00;;;;;;5046385;28;20454;-64
2021/11/28 09:43:19;;;;;;;10.30;9.27;;;3.10;1.00;;;;;;5076229;28;20552;-64
2021/11/28 09:45:49;;;;;;;10.63;8.67;;;3.20;1.00;;;;;;5076730;28;20524;-63
2021/11/28 09:48:24;;;;;;;14.43;9.90;;;3.00;1.00;;;;;;5055612;28;20545;-63
2021/11/28 09:50:57;;;;;;;13.80;9.60;;;3.00;1.00;;;;;;5056913;28;20472;-63
2021/11/28 09:53:25;;;;;;;11.27;9.97;;;2.90;99.90;;;;;;5056888;28;20557;-63
2021/11/28 09:55:53;;;;;;;13.60;8.73;;;2.90;66.70;;;;;;5056962;28;20470;-63
2021/11/28 09:58:24;;;;;;;13.93;9.80;;;2.90;99.90;;;;;;5056110;28;20466;-63
2021/11/28 10:00:54;;;;;;;14.60;11.10;;;2.90;55.80;;;;;;5056580;28;20462;-63
2021/11/28 10:03:26;;;;;;;14.43;10.27;;;2.90;1.00;;;;;;5056269;28;20462;-63
2021/11/28 10:05:55;;;;;;;11.00;9.00;;;2.90;99.90;;;;;;5056285;28;20501;-63
2021/11/28 10:08:24;;;;;;;11.30;10.10;;;2.90;1.00;;;;;;5056295;28;20900;-63
2021/11/28 10:11:17;;;;;;;12.40;9.50;;;2.90;99.90;;;;;;5056255;28;20511;-63
2021/11/28 10:13:47;;;;;;;14.33;10.60;;;3.00;1.00;;;;;;5054164;28;20498;-63
2021/11/28 10:16:16;;;;;;;14.33;11.13;;;3.10;99.90;;;;;;5068271;28;20450;-63
2021/11/28 10:18:46;;;;;;;11.50;10.30;;;3.20;99.90;;;;;;5061170;28;20461;-63
2021/11/28 10:21:15;;;;;;;12.37;10.63;;;3.20;1.00;;;;;;5061520;28;20497;-63
2021/11/28 10:24:10;;;;;;;11.73;10.47;;;3.30;1.00;;;;;;5069228;28;20466;-63
2021/11/28 10:26:54;;;;;;;13.23;10.90;;;3.40;99.90;;;;;;5067058;28;20602;-63
2021/11/28 10:29:23;;;;;;;19.40;12.50;;;3.50;24.20;;;;;;5052992;28;20458;-63
2021/11/28 10:31:57;;;;;;;15.83;11.30;;;3.50;99.90;;;;;;5060230;28;20458;-63
2021/11/28 10:34:31;;;;;;;13.97;11.20;;;3.40;99.90;;;;;;5060284;28;20541;-63
2021/11/28 10:37:09;;;;;;;15.30;11.63;;;3.30;7.80;;;;;;5060057;28;20496;-63
2021/11/28 10:39:41;;;;;;;19.07;13.30;;;3.30;26.60;;;;;;5059110;28;20958;-63
2021/11/28 10:42:23;;;;;;;16.00;12.93;;;3.40;99.90;;;;;;5060816;28;20564;-63
2021/11/28 10:45:24;;;;;;;19.13;14.23;;;3.50;99.90;;;;;;5060541;28;20585;-63
2021/11/28 10:48:01;;;;;;;19.23;14.87;;;3.60;99.90;;;;;;5045077;28;21018;-63
2021/11/28 10:50:35;;;;;;;19.70;15.07;;;3.80;99.90;;;;;;5059354;28;20469;-63
2021/11/28 10:53:10;;;;;;;17.17;13.67;;;3.60;1.00;;;;;;5061969;28;20470;-63
2021/11/28 10:55:42;;;;;;;20.33;14.17;;;3.60;1.00;;;;;;5055654;28;20457;-63
2021/11/28 10:58:12;;;;;;;19.10;13.20;;;3.50;1.00;;;;;;5057980;28;20462;-63
2021/11/28 11:00:44;;;;;;;15.97;13.23;;;3.30;1.00;;;;;;5057619;28;20528;-63
2021/11/28 11:03:17;;;;;;;19.33;13.87;;;3.30;99.90;;;;;;5058974;28;20465;-63
2021/11/28 11:05:45;;;;;;;17.50;14.27;;;3.20;99.90;;;;;;5059404;28;20502;-63
2021/11/28 11:08:16;;;;;;;20.10;13.67;;;3.20;99.90;;;;;;5059387;28;20909;-63
2021/11/28 11:10:45;;;;;;;24.67;14.70;;;3.30;1.00;;;;;;5058442;28;20506;-63
2021/11/28 11:13:22;;;;;;;18.90;14.10;;;3.90;1.00;;;;;;5058798;28;20569;-63
2021/11/28 11:15:51;;;;;;;20.00;13.20;;;4.40;87.80;;;;;;5054523;28;20482;-63
2021/11/28 11:18:21;;;;;;;16.00;14.30;;;5.10;1.00;;;;;;5038883;28;20550;-63
2021/11/28 11:20:50;;;;;;;18.13;13.40;;;5.40;45.40;;;;;;5044637;28;20458;-63
2021/11/28 11:23:42;;;;;;;14.40;12.60;;;5.80;1.00;;;;;;5040053;28;20463;-63
2021/11/28 11:26:18;;;;;;;17.13;12.30;;;6.20;1.00;;;;;;5041244;28;20528;-63
2021/11/28 11:29:10;;;;;;;16.70;12.77;;;6.50;1.00;;;;;;5058185;28;20850;-63
2021/11/28 11:31:44;;;;;;;22.77;13.90;;;7.20;1.00;;;;;;5058140;28;20560;-64
2021/11/28 11:34:33;;;;;;;18.13;14.03;;;7.90;1.00;;;;;;5058073;28;20547;-64
2021/11/28 11:37:08;;;;;;;15.90;12.17;;;8.10;1.00;;;;;;5059375;28;20462;-64
2021/11/28 11:39:41;;;;;;;16.50;12.27;;;8.10;1.00;;;;;;5059065;28;20982;-63
2021/11/28 11:42:13;;;;;;;13.30;11.53;;;7.70;1.00;;;;;;5058491;28;20972;-64
2021/11/28 11:44:43;;;;;;;18.50;12.53;;;6.70;1.00;;;;;;5057932;28;20497;-64
2021/11/28 11:47:12;;;;;;;13.50;12.03;;;6.80;1.00;;;;;;5054576;28;20489;-64
2021/11/28 11:49:43;;;;;;;16.67;12.70;;;7.20;1.00;;;;;;5058686;28;20943;-64
2021/11/28 11:52:17;;;;;;;17.73;13.30;;;7.20;1.00;;;;;;5058052;28;20472;-63
2021/11/28 11:54:49;;;;;;;17.77;13.47;;;7.30;1.00;;;;;;5057950;28;20943;-63
2021/11/28 11:57:25;;;;;;;14.23;11.17;;;7.50;1.00;;;;;;5057844;28;20494;-63
2021/11/28 12:00:07;;;;;;;14.43;11.60;;;7.00;1.00;;;;;;5057404;28;20834;-63
2021/11/28 12:02:38;;;;;;;13.23;11.53;;;6.70;1.00;;;;;;5055661;28;20750;-63
2021/11/28 12:05:39;;;;;;;16.90;12.87;;;6.60;1.00;;;;;;5055780;28;20581;-63
2021/11/28 12:08:19;;;;;;;18.77;13.40;;;6.40;1.00;;;;;;5056137;28;20446;-63
2021/11/28 12:11:04;;;;;;;14.63;11.87;;;6.10;1.00;;;;;;5058282;28;20481;-63
2021/11/28 12:13:52;;;;;;;19.30;13.80;;;6.00;1.00;;;;;;5058295;28;20443;-63
2021/11/28 12:16:30;;;;;;;18.87;13.87;;;5.90;1.00;;;;;;5057959;28;20455;-63
2021/11/28 12:19:01;;;;;;;14.63;12.30;;;5.80;1.00;;;;;;5058373;28;20458;-63
2021/11/28 12:21:43;;;;;;;16.17;13.20;;;6.00;1.00;;;;;;5058123;28;20892;-64
2021/11/28 12:24:12;;;;;;;15.10;12.53;;;5.70;1.00;;;;;;5058766;28;20544;-64
2021/11/28 12:26:45;;;;;;;18.50;12.90;;;5.50;1.00;;;;;;5057908;28;20849;-63
2021/11/28 12:29:32;;;;;;;16.83;12.17;;;5.40;1.00;;;;;;5058343;28;20469;-64
2021/11/28 12:32:16;;;;;;;17.33;13.10;;;5.40;1.00;;;;;;5057665;28;20848;-63
2021/11/28 12:34:45;;;;;;;14.87;11.97;;;5.10;1.00;;;;;;5057577;28;20454;-64
2021/11/28 12:37:25;;;;;;;16.50;11.83;;;4.90;1.00;;;;;;5058404;28;20473;-64
2021/11/28 12:39:57;;;;;;;15.57;12.40;;;4.80;1.00;;;;;;5055527;28;20458;-64
2021/11/28 12:42:28;;;;;;;17.97;12.33;;;4.70;1.00;;;;;;5056368;28;20454;-63
2021/11/28 12:45:02;;;;;;;18.17;12.00;;;4.80;1.00;;;;;;5056736;28;20493;-63
2021/11/28 12:47:33;;;;;;;15.37;12.27;;;4.60;1.00;;;;;;5054558;28;20911;-63
2021/11/28 12:50:04;;;;;;;14.03;11.37;;;4.50;1.00;;;;;;5057331;28;20726;-63
2021/11/28 12:52:38;;;;;;;13.27;11.57;;;4.60;1.00;;;;;;5054805;28;20462;-63
2021/11/28 12:55:15;;;;;;;13.73;12.07;;;4.50;1.00;;;;;;5057352;28;20479;-64
2021/11/28 12:58:05;;;;;;;19.83;12.10;;;4.40;1.00;;;;;;5057118;28;20896;-63
2021/11/28 13:00:35;;;;;;;16.33;12.10;;;4.40;1.00;;;;;;5054713;28;20461;-63
2021/11/28 13:03:19;;;;;;;21.03;12.17;;;4.50;1.00;;;;;;5055781;28;20466;-63
2021/11/28 13:05:58;;;;;;;16.20;12.50;;;4.70;1.00;;;;;;5054325;28;20457;-63
2021/11/28 13:08:38;;;;;;;16.43;13.20;;;4.80;1.00;;;;;;5054184;28;20450;-63
2021/11/28 13:11:10;;;;;;;17.70;12.37;;;4.70;1.00;;;;;;5057192;28;20469;-63
2021/11/28 13:13:42;;;;;;;17.00;13.17;;;4.70;1.00;;;;;;5056036;28;20454;-63